sensor_id;sensor_type;location;lat;lon;timestamp;pressure;altitude;pressure_sealevel;temperature;humidity
23170;BME280;11753;43.144;24.714;2022-07-29T00:00:28;99627.81;;;23.09;78.77
23170;BME280;11753;43.144;24.714;2022-07-29T00:01:29;99624.09;;;23.10;78.69
23170;BME280;11753;43.144;24.714;2022-07-29T00:02:30;99625.03;;;23.03;78.94
23170;BME280;11753;43.144;24.714;2022-07-29T00:03:32;99619.66;;;23.03;79.04
23170;BME280;11753;43.144;24.714;2022-07-29T00:04:36;99623.28;;;22.97;79.28
23170;BME280;11753;43.144;24.714;2022-07-29T00:05:40;99622.34;;;22.92;79.29
23170;BME280;11753;43.144;24.714;2022-07-29T00:06:41;99618.00;;;22.91;79.52
23170;BME280;11753;43.144;24.714;2022-07-29T00:07:42;99620.13;;;22.89;79.59
23170;BME280;11753;43.144;24.714;2022-07-29T00:08:43;99614.75;;;22.89;79.69
23170;BME280;11753;43.144;24.714;2022-07-29T00:09:43;99615.81;;;22.88;79.67
23170;BME280;11753;43.144;24.714;2022-07-29T00:10:44;99619.16;;;22.83;79.84
23170;BME280;11753;43.144;24.714;2022-07-29T00:11:45;99614.59;;;22.84;79.94
23170;BME280;11753;43.144;24.714;2022-07-29T00:12:49;99615.00;;;22.87;79.63
23170;BME280;11753;43.144;24.714;2022-07-29T00:13:49;99611.03;;;22.90;79.74
23170;BME280;11753;43.144;24.714;2022-07-29T00:14:50;99609.22;;;22.84;80.08
23170;BME280;11753;43.144;24.714;2022-07-29T00:15:51;99608.41;;;22.83;79.99
23170;BME280;11753;43.144;24.714;2022-07-29T00:16:52;99604.91;;;22.83;79.71
23170;BME280;11753;43.144;24.714;2022-07-29T00:17:53;99609.47;;;22.82;80.09
23170;BME280;11753;43.144;24.714;2022-07-29T00:18:54;99608.09;;;22.79;80.03
23170;BME280;11753;43.144;24.714;2022-07-29T00:19:54;99607.59;;;22.83;80.10
23170;BME280;11753;43.144;24.714;2022-07-29T00:20:56;99614.28;;;22.80;80.16
23170;BME280;11753;43.144;24.714;2022-07-29T00:21:57;99615.91;;;22.81;80.39
23170;BME280;11753;43.144;24.714;2022-07-29T00:22:58;99618.72;;;22.86;79.90
23170;BME280;11753;43.144;24.714;2022-07-29T00:23:58;99610.53;;;22.81;80.10
23170;BME280;11753;43.144;24.714;2022-07-29T00:24:59;99602.25;;;22.83;80.07
23170;BME280;11753;43.144;24.714;2022-07-29T00:26:00;99605.16;;;22.81;80.16
23170;BME280;11753;43.144;24.714;2022-07-29T00:27:01;99604.78;;;22.77;80.10
23170;BME280;11753;43.144;24.714;2022-07-29T00:28:02;99612.84;;;22.77;80.13
23170;BME280;11753;43.144;24.714;2022-07-29T00:29:03;99608.41;;;22.71;80.69
23170;BME280;11753;43.144;24.714;2022-07-29T00:30:04;99602.22;;;22.71;80.64
23170;BME280;11753;43.144;24.714;2022-07-29T00:31:05;99604.47;;;22.74;80.12
23170;BME280;11753;43.144;24.714;2022-07-29T00:32:06;99606.09;;;22.75;80.26
23170;BME280;11753;43.144;24.714;2022-07-29T00:33:07;99606.69;;;22.65;80.58
23170;BME280;11753;43.144;24.714;2022-07-29T00:34:08;99608.53;;;22.65;80.72
23170;BME280;11753;43.144;24.714;2022-07-29T00:35:29;99600.72;;;22.63;80.64
23170;BME280;11753;43.144;24.714;2022-07-29T00:36:44;99599.78;;;22.58;80.72
23170;BME280;11753;43.144;24.714;2022-07-29T00:37:45;99597.22;;;22.63;80.63
23170;BME280;11753;43.144;24.714;2022-07-29T00:38:46;99599.88;;;22.63;80.70
23170;BME280;11753;43.144;24.714;2022-07-29T00:39:47;99596.38;;;22.62;80.72
23170;BME280;11753;43.144;24.714;2022-07-29T00:40:48;99595.44;;;22.57;80.72
23170;BME280;11753;43.144;24.714;2022-07-29T00:41:49;99604.31;;;22.57;80.59
23170;BME280;11753;43.144;24.714;2022-07-29T00:42:50;99595.34;;;22.51;80.73
23170;BME280;11753;43.144;24.714;2022-07-29T00:43:52;99601.06;;;22.55;80.81
23170;BME280;11753;43.144;24.714;2022-07-29T00:44:52;99600.25;;;22.55;80.99
23170;BME280;11753;43.144;24.714;2022-07-29T00:45:53;99597.09;;;22.58;80.61
23170;BME280;11753;43.144;24.714;2022-07-29T00:46:54;99600.72;;;22.51;81.01
23170;BME280;11753;43.144;24.714;2022-07-29T00:47:55;99597.56;;;22.55;80.71
23170;BME280;11753;43.144;24.714;2022-07-29T00:48:56;99592.44;;;22.53;81.02
23170;BME280;11753;43.144;24.714;2022-07-29T00:49:58;99592.06;;;22.49;81.17
23170;BME280;11753;43.144;24.714;2022-07-29T00:50:59;99596.72;;;22.42;81.49
23170;BME280;11753;43.144;24.714;2022-07-29T00:52:02;99589.72;;;22.41;81.65
23170;BME280;11753;43.144;24.714;2022-07-29T00:53:05;99589.16;;;22.39;81.87
23170;BME280;11753;43.144;24.714;2022-07-29T00:54:06;99592.31;;;22.36;81.98
23170;BME280;11753;43.144;24.714;2022-07-29T00:55:08;99592.41;;;22.41;81.77
23170;BME280;11753;43.144;24.714;2022-07-29T00:56:10;99588.56;;;22.37;81.84
23170;BME280;11753;43.144;24.714;2022-07-29T00:57:11;99588.56;;;22.37;81.90
23170;BME280;11753;43.144;24.714;2022-07-29T00:58:12;99582.38;;;22.37;81.74
23170;BME280;11753;43.144;24.714;2022-07-29T00:59:13;99583.41;;;22.36;81.88
23170;BME280;11753;43.144;24.714;2022-07-29T01:00:16;99580.63;;;22.31;82.23
23170;BME280;11753;43.144;24.714;2022-07-29T01:01:18;99585.28;;;22.35;81.91
23170;BME280;11753;43.144;24.714;2022-07-29T01:02:18;99582.00;;;22.33;81.78
23170;BME280;11753;43.144;24.714;2022-07-29T01:03:19;99587.38;;;22.33;82.16
23170;BME280;11753;43.144;24.714;2022-07-29T01:04:20;99578.53;;;22.33;81.83
23170;BME280;11753;43.144;24.714;2022-07-29T01:05:22;99580.72;;;22.36;81.90
23170;BME280;11753;43.144;24.714;2022-07-29T01:06:23;99577.13;;;22.42;81.93
23170;BME280;11753;43.144;24.714;2022-07-29T01:07:25;99583.22;;;22.37;81.71
23170;BME280;11753;43.144;24.714;2022-07-29T01:08:27;99582.84;;;22.34;81.88
23170;BME280;11753;43.144;24.714;2022-07-29T01:09:28;99578.28;;;22.34;82.24
23170;BME280;11753;43.144;24.714;2022-07-29T01:10:30;99583.41;;;22.36;81.87
23170;BME280;11753;43.144;24.714;2022-07-29T01:11:31;99580.16;;;22.34;81.87
23170;BME280;11753;43.144;24.714;2022-07-29T01:12:32;99579.56;;;22.32;81.93
23170;BME280;11753;43.144;24.714;2022-07-29T01:13:34;99574.06;;;22.27;82.30
23170;BME280;11753;43.144;24.714;2022-07-29T01:14:35;99575.50;;;22.29;82.14
23170;BME280;11753;43.144;24.714;2022-07-29T01:15:42;99584.69;;;22.33;82.17
23170;BME280;11753;43.144;24.714;2022-07-29T01:17:06;99579.19;;;22.28;82.30
23170;BME280;11753;43.144;24.714;2022-07-29T01:19:23;99586.53;;;22.21;82.36
23170;BME280;11753;43.144;24.714;2022-07-29T01:25:12;99580.69;;;22.12;82.84
23170;BME280;11753;43.144;24.714;2022-07-29T01:29:56;99573.59;;;22.18;82.76
23170;BME280;11753;43.144;24.714;2022-07-29T01:30:59;99584.78;;;22.15;82.61
23170;BME280;11753;43.144;24.714;2022-07-29T01:32:08;99577.50;;;22.04;82.72
23170;BME280;11753;43.144;24.714;2022-07-29T01:33:11;99577.78;;;22.14;82.84
23170;BME280;11753;43.144;24.714;2022-07-29T01:34:45;99574.00;;;22.03;82.79
23170;BME280;11753;43.144;24.714;2022-07-29T01:35:49;99570.94;;;21.99;83.05
23170;BME280;11753;43.144;24.714;2022-07-29T01:37:13;99577.50;;;22.04;83.05
23170;BME280;11753;43.144;24.714;2022-07-29T01:38:20;99567.78;;;21.91;83.52
23170;BME280;11753;43.144;24.714;2022-07-29T01:39:32;99574.41;;;21.88;83.37
23170;BME280;11753;43.144;24.714;2022-07-29T01:41:34;99568.59;;;21.91;83.31
23170;BME280;11753;43.144;24.714;2022-07-29T01:42:37;99574.75;;;21.92;83.51
23170;BME280;11753;43.144;24.714;2022-07-29T01:44:50;99573.63;;;21.99;83.10
23170;BME280;11753;43.144;24.714;2022-07-29T01:46:03;99564.56;;;22.01;83.07
23170;BME280;11753;43.144;24.714;2022-07-29T01:47:06;99565.97;;;22.03;82.89
23170;BME280;11753;43.144;24.714;2022-07-29T01:48:18;99567.25;;;22.01;83.24
23170;BME280;11753;43.144;24.714;2022-07-29T01:49:21;99565.00;;;21.97;83.15
23170;BME280;11753;43.144;24.714;2022-07-29T01:50:23;99563.94;;;21.98;83.12
23170;BME280;11753;43.144;24.714;2022-07-29T01:51:29;99570.13;;;21.99;82.87
23170;BME280;11753;43.144;24.714;2022-07-29T01:52:35;99561.88;;;22.01;83.07
23170;BME280;11753;43.144;24.714;2022-07-29T01:53:42;99560.69;;;21.96;83.05
23170;BME280;11753;43.144;24.714;2022-07-29T01:54:45;99569.31;;;21.98;83.06
23170;BME280;11753;43.144;24.714;2022-07-29T01:55:48;99562.91;;;21.99;83.07
23170;BME280;11753;43.144;24.714;2022-07-29T01:56:49;99569.31;;;21.98;82.87
23170;BME280;11753;43.144;24.714;2022-07-29T01:57:51;99565.59;;;21.99;83.06
23170;BME280;11753;43.144;24.714;2022-07-29T01:58:52;99563.94;;;21.98;82.86
23170;BME280;11753;43.144;24.714;2022-07-29T01:59:53;99562.56;;;21.96;82.87
23170;BME280;11753;43.144;24.714;2022-07-29T02:00:55;99564.44;;;21.95;83.19
23170;BME280;11753;43.144;24.714;2022-07-29T02:01:58;99559.97;;;21.89;83.28
23170;BME280;11753;43.144;24.714;2022-07-29T02:03:00;99568.16;;;21.94;82.91
23170;BME280;11753;43.144;24.714;2022-07-29T02:04:03;99562.78;;;21.94;82.72
23170;BME280;11753;43.144;24.714;2022-07-29T02:05:07;99571.41;;;21.96;82.83
23170;BME280;11753;43.144;24.714;2022-07-29T02:06:10;99574.31;;;21.95;82.79
23170;BME280;11753;43.144;24.714;2022-07-29T02:07:12;99568.16;;;21.94;82.76
23170;BME280;11753;43.144;24.714;2022-07-29T02:08:14;99566.06;;;21.96;82.85
23170;BME280;11753;43.144;24.714;2022-07-29T02:09:16;99571.09;;;22.05;82.31
23170;BME280;11753;43.144;24.714;2022-07-29T02:10:18;99572.59;;;22.01;82.06
23170;BME280;11753;43.144;24.714;2022-07-29T02:11:20;99560.59;;;22.03;82.29
23170;BME280;11753;43.144;24.714;2022-07-29T02:12:20;99569.31;;;21.98;82.27
23170;BME280;11753;43.144;24.714;2022-07-29T02:13:22;99566.19;;;22.02;82.24
23170;BME280;11753;43.144;24.714;2022-07-29T02:14:24;99563.94;;;21.98;82.36
23170;BME280;11753;43.144;24.714;2022-07-29T02:15:25;99567.44;;;21.99;82.42
23170;BME280;11753;43.144;24.714;2022-07-29T02:16:28;99560.22;;;21.99;82.42
23170;BME280;11753;43.144;24.714;2022-07-29T02:17:32;99554.88;;;21.99;82.24
23170;BME280;11753;43.144;24.714;2022-07-29T02:18:33;99558.16;;;22.02;81.82
23170;BME280;11753;43.144;24.714;2022-07-29T02:19:36;99563.13;;;21.98;82.28
23170;BME280;11753;43.144;24.714;2022-07-29T02:20:38;99568.59;;;21.91;82.27
23170;BME280;11753;43.144;24.714;2022-07-29T02:21:40;99562.06;;;21.87;82.69
23170;BME280;11753;43.144;24.714;2022-07-29T02:22:40;99568.00;;;21.89;82.57
23170;BME280;11753;43.144;24.714;2022-07-29T02:23:41;99566.63;;;21.87;82.45
23170;BME280;11753;43.144;24.714;2022-07-29T02:24:43;99560.63;;;21.73;83.21
23170;BME280;11753;43.144;24.714;2022-07-29T02:25:48;99563.41;;;21.78;83.25
23170;BME280;11753;43.144;24.714;2022-07-29T02:26:49;99562.97;;;21.81;83.11
23170;BME280;11753;43.144;24.714;2022-07-29T02:27:50;99558.53;;;21.75;83.19
23170;BME280;11753;43.144;24.714;2022-07-29T02:28:52;99557.94;;;21.73;83.37
23170;BME280;11753;43.144;24.714;2022-07-29T02:29:54;99561.66;;;21.72;83.38
23170;BME280;11753;43.144;24.714;2022-07-29T02:30:56;99561.88;;;21.70;83.56
23170;BME280;11753;43.144;24.714;2022-07-29T02:31:58;99562.25;;;21.74;83.37
23170;BME280;11753;43.144;24.714;2022-07-29T02:32:59;99559.44;;;21.69;83.49
23170;BME280;11753;43.144;24.714;2022-07-29T02:34:05;99557.81;;;21.68;83.48
23170;BME280;11753;43.144;24.714;2022-07-29T02:35:08;99557.34;;;21.71;83.21
23170;BME280;11753;43.144;24.714;2022-07-29T02:36:09;99555.69;;;21.70;83.50
23170;BME280;11753;43.144;24.714;2022-07-29T02:37:11;99556.25;;;21.60;83.70
23170;BME280;11753;43.144;24.714;2022-07-29T02:38:12;99554.63;;;21.59;83.60
23170;BME280;11753;43.144;24.714;2022-07-29T02:39:32;99553.81;;;21.59;83.89
23170;BME280;11753;43.144;24.714;2022-07-29T02:40:35;99560.78;;;21.60;83.82
23170;BME280;11753;43.144;24.714;2022-07-29T02:41:48;99563.63;;;21.65;83.73
23170;BME280;11753;43.144;24.714;2022-07-29T02:42:49;99559.75;;;21.61;83.93
23170;BME280;11753;43.144;24.714;2022-07-29T02:43:52;99564.06;;;21.62;84.10
23170;BME280;11753;43.144;24.714;2022-07-29T02:44:55;99552.06;;;21.64;83.97
23170;BME280;11753;43.144;24.714;2022-07-29T02:45:56;99565.84;;;21.68;83.74
23170;BME280;11753;43.144;24.714;2022-07-29T02:48:22;99563.00;;;21.63;83.87
23170;BME280;11753;43.144;24.714;2022-07-29T02:50:28;99560.94;;;21.65;83.51
23170;BME280;11753;43.144;24.714;2022-07-29T02:51:36;99566.06;;;21.66;83.54
23170;BME280;11753;43.144;24.714;2022-07-29T02:52:45;99560.47;;;21.68;83.33
23170;BME280;11753;43.144;24.714;2022-07-29T02:53:48;99568.03;;;21.71;83.43
23170;BME280;11753;43.144;24.714;2022-07-29T02:54:54;99572.38;;;21.72;83.32
23170;BME280;11753;43.144;24.714;2022-07-29T02:55:57;99575.06;;;21.72;83.45
23170;BME280;11753;43.144;24.714;2022-07-29T02:57:00;99577.94;;;21.70;83.23
23170;BME280;11753;43.144;24.714;2022-07-29T02:59:14;99576.69;;;21.73;83.25
23170;BME280;11753;43.144;24.714;2022-07-29T03:00:20;99576.69;;;21.73;83.27
23170;BME280;11753;43.144;24.714;2022-07-29T03:01:25;99574.13;;;21.78;83.01
23170;BME280;11753;43.144;24.714;2022-07-29T03:02:28;99581.97;;;21.80;83.29
23170;BME280;11753;43.144;24.714;2022-07-29T03:03:33;99579.97;;;21.75;83.19
23170;BME280;11753;43.144;24.714;2022-07-29T03:04:36;99574.22;;;21.71;83.32
23170;BME280;11753;43.144;24.714;2022-07-29T03:05:37;99576.91;;;21.71;83.10
23170;BME280;11753;43.144;24.714;2022-07-29T03:06:37;99577.13;;;21.70;83.34
23170;BME280;11753;43.144;24.714;2022-07-29T03:07:39;99584.50;;;21.75;83.23
23170;BME280;11753;43.144;24.714;2022-07-29T03:08:40;99597.41;;;21.66;83.41
23170;BME280;11753;43.144;24.714;2022-07-29T03:09:41;99595.75;;;21.65;83.20
23170;BME280;11753;43.144;24.714;2022-07-29T03:10:43;99595.16;;;21.63;83.62
23170;BME280;11753;43.144;24.714;2022-07-29T03:11:45;99600.75;;;21.61;83.88
23170;BME280;11753;43.144;24.714;2022-07-29T03:12:45;99601.56;;;21.62;83.87
23170;BME280;11753;43.144;24.714;2022-07-29T03:13:47;99601.13;;;21.65;83.57
23170;BME280;11753;43.144;24.714;2022-07-29T03:14:48;99603.09;;;21.69;83.73
23170;BME280;11753;43.144;24.714;2022-07-29T03:15:48;99606.59;;;21.70;83.70
23170;BME280;11753;43.144;24.714;2022-07-29T03:16:49;99615.44;;;21.70;83.54
23170;BME280;11753;43.144;24.714;2022-07-29T03:17:51;99613.00;;;21.69;83.34
23170;BME280;11753;43.144;24.714;2022-07-29T03:18:53;99612.56;;;21.72;83.35
23170;BME280;11753;43.144;24.714;2022-07-29T03:19:54;99616.66;;;21.75;83.26
23170;BME280;11753;43.144;24.714;2022-07-29T03:20:55;99616.41;;;21.76;83.27
23170;BME280;11753;43.144;24.714;2022-07-29T03:21:57;99614.56;;;21.77;83.32
23170;BME280;11753;43.144;24.714;2022-07-29T03:22:58;99621.09;;;21.81;83.19
23170;BME280;11753;43.144;24.714;2022-07-29T03:23:59;99616.56;;;21.81;82.75
23170;BME280;11753;43.144;24.714;2022-07-29T03:25:07;99623.09;;;21.85;82.77
23170;BME280;11753;43.144;24.714;2022-07-29T03:26:07;99611.78;;;21.83;82.62
23170;BME280;11753;43.144;24.714;2022-07-29T03:27:08;99626.47;;;21.81;82.54
23170;BME280;11753;43.144;24.714;2022-07-29T03:28:09;99618.66;;;21.79;83.01
23170;BME280;11753;43.144;24.714;2022-07-29T03:29:10;99617.09;;;21.71;83.21
23170;BME280;11753;43.144;24.714;2022-07-29T03:30:11;99617.94;;;21.72;83.19
23170;BME280;11753;43.144;24.714;2022-07-29T03:31:13;99616.41;;;21.76;82.94
23170;BME280;11753;43.144;24.714;2022-07-29T03:32:13;99623.56;;;21.82;82.84
23170;BME280;11753;43.144;24.714;2022-07-29T03:33:14;99615.03;;;21.85;82.63
23170;BME280;11753;43.144;24.714;2022-07-29T03:34:15;99615.66;;;21.87;82.62
23170;BME280;11753;43.144;24.714;2022-07-29T03:35:16;99625.75;;;21.85;82.94
23170;BME280;11753;43.144;24.714;2022-07-29T03:36:19;99615.66;;;21.87;82.69
23170;BME280;11753;43.144;24.714;2022-07-29T03:37:20;99615.19;;;21.90;82.50
23170;BME280;11753;43.144;24.714;2022-07-29T03:38:21;99620.56;;;21.90;82.28
23170;BME280;11753;43.144;24.714;2022-07-29T03:39:25;99631.28;;;21.90;82.49
23170;BME280;11753;43.144;24.714;2022-07-29T03:40:38;99629.63;;;21.89;82.40
23170;BME280;11753;43.144;24.714;2022-07-29T03:41:41;99632.31;;;21.89;82.66
23170;BME280;11753;43.144;24.714;2022-07-29T03:42:42;99623.00;;;21.92;82.42
23170;BME280;11753;43.144;24.714;2022-07-29T03:43:43;99618.94;;;21.89;82.27
23170;BME280;11753;43.144;24.714;2022-07-29T03:44:45;99617.28;;;21.88;82.62
23170;BME280;11753;43.144;24.714;2022-07-29T03:45:47;99620.13;;;21.93;82.02
23170;BME280;11753;43.144;24.714;2022-07-29T03:46:50;99618.03;;;21.95;82.17
23170;BME280;11753;43.144;24.714;2022-07-29T03:47:53;99610.78;;;21.96;82.15
23170;BME280;11753;43.144;24.714;2022-07-29T03:48:55;99608.03;;;22.03;81.87
23170;BME280;11753;43.144;24.714;2022-07-29T03:50:02;99613.38;;;22.03;81.79
23170;BME280;11753;43.144;24.714;2022-07-29T03:51:05;99616.31;;;22.01;81.63
23170;BME280;11753;43.144;24.714;2022-07-29T03:52:06;99619.56;;;22.03;81.81
23170;BME280;11753;43.144;24.714;2022-07-29T03:53:07;99628.75;;;21.95;82.06
23170;BME280;11753;43.144;24.714;2022-07-29T03:54:08;99634.09;;;21.95;81.73
23170;BME280;11753;43.144;24.714;2022-07-29T03:55:09;99628.16;;;21.93;82.02
23170;BME280;11753;43.144;24.714;2022-07-29T03:56:10;99631.41;;;21.95;81.67
23170;BME280;11753;43.144;24.714;2022-07-29T03:57:15;99627.44;;;21.98;81.76
23170;BME280;11753;43.144;24.714;2022-07-29T03:58:17;99620.13;;;21.93;81.98
23170;BME280;11753;43.144;24.714;2022-07-29T03:59:19;99616.97;;;21.96;82.06
23170;BME280;11753;43.144;24.714;2022-07-29T04:00:21;99623.97;;;21.97;82.10
23170;BME280;11753;43.144;24.714;2022-07-29T04:01:23;99611.75;;;22.02;81.74
23170;BME280;11753;43.144;24.714;2022-07-29T04:02:23;99604.75;;;22.01;81.79
23170;BME280;11753;43.144;24.714;2022-07-29T04:03:25;99610.31;;;21.99;81.54
23170;BME280;11753;43.144;24.714;2022-07-29T04:04:26;99616.72;;;21.98;81.56
23170;BME280;11753;43.144;24.714;2022-07-29T04:05:26;99620.84;;;22.01;81.26
23170;BME280;11753;43.144;24.714;2022-07-29T04:06:26;99620.00;;;22.00;81.48
23170;BME280;11753;43.144;24.714;2022-07-29T04:07:27;99621.28;;;21.97;81.45
23170;BME280;11753;43.144;24.714;2022-07-29T04:08:27;99616.50;;;21.99;81.74
23170;BME280;11753;43.144;24.714;2022-07-29T04:09:28;99609.06;;;22.02;81.88
23170;BME280;11753;43.144;24.714;2022-07-29T04:10:28;99617.69;;;22.04;81.67
23170;BME280;11753;43.144;24.714;2022-07-29T04:11:29;99620.13;;;21.93;82.16
23170;BME280;11753;43.144;24.714;2022-07-29T04:12:29;99614.63;;;22.00;81.91
23170;BME280;11753;43.144;24.714;2022-07-29T04:13:30;99618.69;;;22.09;81.47
23170;BME280;11753;43.144;24.714;2022-07-29T04:14:32;99629.75;;;22.13;81.44
23170;BME280;11753;43.144;24.714;2022-07-29T04:15:33;99628.13;;;22.12;81.22
23170;BME280;11753;43.144;24.714;2022-07-29T04:16:34;99632.44;;;22.13;81.31
23170;BME280;11753;43.144;24.714;2022-07-29T04:17:35;99634.19;;;22.19;81.35
23170;BME280;11753;43.144;24.714;2022-07-29T04:18:35;99635.72;;;22.15;81.11
23170;BME280;11753;43.144;24.714;2022-07-29T04:19:36;99634.19;;;22.19;80.98
23170;BME280;11753;43.144;24.714;2022-07-29T04:20:37;99635.41;;;22.23;80.64
23170;BME280;11753;43.144;24.714;2022-07-29T04:21:40;99630.47;;;22.20;80.86
23170;BME280;11753;43.144;24.714;2022-07-29T04:22:41;99636.44;;;22.22;80.62
23170;BME280;11753;43.144;24.714;2022-07-29T04:23:42;99639.13;;;22.22;80.76
23170;BME280;11753;43.144;24.714;2022-07-29T04:24:45;99637.84;;;22.24;81.01
23170;BME280;11753;43.144;24.714;2022-07-29T04:25:46;99639.84;;;22.29;80.75
23170;BME280;11753;43.144;24.714;2022-07-29T04:26:47;99637.75;;;22.31;80.81
23170;BME280;11753;43.144;24.714;2022-07-29T04:27:48;99637.28;;;22.34;80.85
23170;BME280;11753;43.144;24.714;2022-07-29T04:29:00;99638.91;;;22.35;80.60
23170;BME280;11753;43.144;24.714;2022-07-29T04:30:01;99639.28;;;22.39;80.78
23170;BME280;11753;43.144;24.714;2022-07-29T04:31:02;99634.97;;;22.49;80.17
23170;BME280;11753;43.144;24.714;2022-07-29T04:32:03;99634.97;;;22.49;80.25
23170;BME280;11753;43.144;24.714;2022-07-29T04:33:04;99629.16;;;22.52;79.92
23170;BME280;11753;43.144;24.714;2022-07-29T04:34:06;99633.25;;;22.55;79.94
23170;BME280;11753;43.144;24.714;2022-07-29T04:35:06;99640.59;;;22.60;79.70
23170;BME280;11753;43.144;24.714;2022-07-29T04:36:08;99634.75;;;22.63;79.74
23170;BME280;11753;43.144;24.714;2022-07-29T04:37:09;99636.19;;;22.65;79.57
23170;BME280;11753;43.144;24.714;2022-07-29T04:38:09;99634.09;;;22.67;79.66
23170;BME280;11753;43.144;24.714;2022-07-29T04:39:10;99634.22;;;22.72;79.40
23170;BME280;11753;43.144;24.714;2022-07-29T04:40:11;99629.66;;;22.73;79.06
23170;BME280;11753;43.144;24.714;2022-07-29T04:41:12;99637.22;;;22.76;78.95
23170;BME280;11753;43.144;24.714;2022-07-29T04:42:13;99636.31;;;22.82;79.05
23170;BME280;11753;43.144;24.714;2022-07-29T04:43:14;99633.63;;;22.82;78.77
23170;BME280;11753;43.144;24.714;2022-07-29T04:44:15;99633.78;;;22.87;78.81
23170;BME280;11753;43.144;24.714;2022-07-29T04:45:16;99636.81;;;22.91;78.75
23170;BME280;11753;43.144;24.714;2022-07-29T04:46:17;99629.13;;;22.94;78.42
23170;BME280;11753;43.144;24.714;2022-07-29T04:47:17;99634.00;;;22.97;78.44
23170;BME280;11753;43.144;24.714;2022-07-29T04:48:18;99629.22;;;22.99;78.31
23170;BME280;11753;43.144;24.714;2022-07-29T04:49:19;99629.22;;;22.99;78.04
23170;BME280;11753;43.144;24.714;2022-07-29T04:50:20;99629.56;;;23.03;78.22
23170;BME280;11753;43.144;24.714;2022-07-29T04:51:21;99634.47;;;23.06;77.87
23170;BME280;11753;43.144;24.714;2022-07-29T04:52:22;99642.31;;;23.08;77.63
23170;BME280;11753;43.144;24.714;2022-07-29T04:53:23;99625.84;;;23.04;77.95
23170;BME280;11753;43.144;24.714;2022-07-29T04:54:24;99627.81;;;23.09;77.75
23170;BME280;11753;43.144;24.714;2022-07-29T04:55:25;99627.47;;;23.05;77.96
23170;BME280;11753;43.144;24.714;2022-07-29T04:56:26;99629.91;;;23.06;77.94
23170;BME280;11753;43.144;24.714;2022-07-29T04:57:27;99635.41;;;23.12;78.06
23170;BME280;11753;43.144;24.714;2022-07-29T04:58:28;99629.22;;;23.23;77.28
23170;BME280;11753;43.144;24.714;2022-07-29T04:59:28;99639.59;;;23.19;77.20
23170;BME280;11753;43.144;24.714;2022-07-29T05:00:29;99634.59;;;23.23;77.36
23170;BME280;11753;43.144;24.714;2022-07-29T05:01:30;99628.28;;;23.29;77.41
23170;BME280;11753;43.144;24.714;2022-07-29T05:02:31;99632.59;;;23.30;77.09
23170;BME280;11753;43.144;24.714;2022-07-29T05:03:32;99628.28;;;23.29;77.18
23170;BME280;11753;43.144;24.714;2022-07-29T05:04:32;99624.88;;;23.33;76.82
23170;BME280;11753;43.144;24.714;2022-07-29T05:05:33;99636.41;;;23.34;76.91
23170;BME280;11753;43.144;24.714;2022-07-29T05:06:34;99633.03;;;23.39;76.88
23170;BME280;11753;43.144;24.714;2022-07-29T05:07:35;99641.66;;;23.41;76.63
23170;BME280;11753;43.144;24.714;2022-07-29T05:08:36;99639.09;;;23.46;76.59
23170;BME280;11753;43.144;24.714;2022-07-29T05:09:36;99625.41;;;23.47;76.58
23170;BME280;11753;43.144;24.714;2022-07-29T05:10:37;99633.22;;;23.49;76.51
23170;BME280;11753;43.144;24.714;2022-07-29T05:11:41;99634.16;;;23.54;76.29
23170;BME280;11753;43.144;24.714;2022-07-29T05:12:42;99632.19;;;23.61;76.33
23170;BME280;11753;43.144;24.714;2022-07-29T05:13:46;99633.34;;;23.66;76.02
23170;BME280;11753;43.144;24.714;2022-07-29T05:14:46;99637.28;;;23.75;75.76
23170;BME280;11753;43.144;24.714;2022-07-29T05:15:47;99632.25;;;23.78;75.43
23170;BME280;11753;43.144;24.714;2022-07-29T05:16:49;99631.28;;;23.84;75.24
23170;BME280;11753;43.144;24.714;2022-07-29T05:17:51;99624.16;;;23.90;74.95
23170;BME280;11753;43.144;24.714;2022-07-29T05:18:52;99628.00;;;23.94;74.75
23170;BME280;11753;43.144;24.714;2022-07-29T05:19:53;99628.06;;;23.99;74.42
23170;BME280;11753;43.144;24.714;2022-07-29T05:20:53;99633.56;;;24.04;74.36
23170;BME280;11753;43.144;24.714;2022-07-29T05:21:54;99632.19;;;24.02;74.12
23170;BME280;11753;43.144;24.714;2022-07-29T05:22:55;99642.53;;;24.10;74.13
23170;BME280;11753;43.144;24.714;2022-07-29T05:23:56;99637.47;;;24.13;73.92
23170;BME280;11753;43.144;24.714;2022-07-29T05:24:56;99633.72;;;24.14;73.71
23170;BME280;11753;43.144;24.714;2022-07-29T05:25:57;99639.69;;;24.16;73.50
23170;BME280;11753;43.144;24.714;2022-07-29T05:26:57;99638.75;;;24.23;73.47
23170;BME280;11753;43.144;24.714;2022-07-29T05:27:57;99632.38;;;24.29;73.18
23170;BME280;11753;43.144;24.714;2022-07-29T05:28:58;99638.09;;;24.32;73.26
23170;BME280;11753;43.144;24.714;2022-07-29T05:29:58;99637.97;;;24.39;73.01
23170;BME280;11753;43.144;24.714;2022-07-29T05:30:59;99634.78;;;24.42;73.20
23170;BME280;11753;43.144;24.714;2022-07-29T05:31:59;99646.94;;;24.45;73.01
23170;BME280;11753;43.144;24.714;2022-07-29T05:32:59;99641.88;;;24.48;72.84
23170;BME280;11753;43.144;24.714;2022-07-29T05:34:00;99641.41;;;24.51;72.69
23170;BME280;11753;43.144;24.714;2022-07-29T05:35:01;99644.16;;;24.56;72.36
23170;BME280;11753;43.144;24.714;2022-07-29T05:36:03;99641.25;;;24.58;72.07
23170;BME280;11753;43.144;24.714;2022-07-29T05:37:05;99641.00;;;24.59;71.96
23170;BME280;11753;43.144;24.714;2022-07-29T05:38:06;99643.69;;;24.59;71.87
23170;BME280;11753;43.144;24.714;2022-07-29T05:39:07;99646.44;;;24.64;71.74
23170;BME280;11753;43.144;24.714;2022-07-29T05:40:08;99638.16;;;24.66;71.48
23170;BME280;11753;43.144;24.714;2022-07-29T05:41:09;99646.28;;;24.71;71.57